Williams, OR

2:54 AM PST on November 27, 2014 (GMT -0800)
Sexton Summit | Change Station
CLOSE
Current Station
Airport
Location: Sexton Summit,
Elevation: 3839 ft
Nearby Weather Stations

Elev 3839 ft 42.60 °N, 123.36 °W | Updated 58 minutes ago

Overcast
Overcast
50 °F
Feels Like 50 °F
N
26
Wind Variable Wind from South
Gusts 47 mph

Today
High -- | Low -- °F
--% Chance of Precip.
Yesterday
High -- | Low -- °F
Precip. -- in
7:17 AM 4:43 PM
Waxing Crescent, 28% visible
Pressure 30.02 in
Visibility 10.0 miles
Clouds Scattered Clouds 9000 ft
Scattered Clouds 11000 ft
Dew Point 34 °F
Humidity 54%
Rainfall 0.00 in
Snow Depth Not available.
UV 0 out of 12
Pollen .80 out of 12
Air Quality Not available.
Flu Activity Not available.
METAR KSXT 270956Z AUTO 18023G41KT 10SM SCT090 SCT110 10/01 A3008 RMK AO2 PK WND 21041/0948 PRESFR SLP164 T01000011

More Conditions Fewer Conditions

Pressure 30.02 in
Visibility 10.0 miles
Clouds Scattered Clouds 9000 ft
Scattered Clouds 11000 ft
Dew Point 34 °F
Humidity 54%
Rainfall 0.00 in
Snow Depth Not available.
UV 0 out of 12
Pollen .80 out of 12
Air Quality Not available.
Flu Activity Not available.
METAR KSXT 270956Z AUTO 18023G41KT 10SM SCT090 SCT110 10/01 A3008 RMK AO2 PK WND 21041/0948 PRESFR SLP164 T01000011

More Conditions Fewer Conditions

10-Day Weather Forecast

Almanac

Astronomy

Nov. 27, 2014 Rise Set
Actual Time
Civil Twilight
Nautical Twilight
Astronomical Twilight
Moon
Length of Visible Light
Length of Day
Tomorrow will be .
, % of the Moon is Illuminated

Today's Extremes

State Highs State Lows

Community

WunderPhotos

Upload Photos

1,773,968 photos uploaded!

WunderBlogs® & News

Nearby

Air Quality

  Air Quality AQ Index Pollutant
Not available.

Snow Depth

Station Depth Elevation

Earthquake Activity

City Distance Mag. Time & Date
Minimum magnitude displayed is 2.5.

Coastal Water Temperatures

Place Temperature

Nearby Weather Stations